createdAt,value
2017-11-16T04:40:56.773Z,97641.90
2017-11-16T04:43:24.658Z,97641.66
2017-11-16T04:45:52.327Z,97629.24
2017-11-16T04:48:19.865Z,97632.26
2017-11-16T04:50:47.825Z,97630.95
2017-11-16T04:53:16.341Z,97636.14
2017-11-16T04:55:44.109Z,97628.21
2017-11-16T04:58:11.690Z,97621.03
2017-11-16T05:00:39.436Z,97618.95
2017-11-16T05:03:07.023Z,97618.89
2017-11-16T05:05:34.593Z,97621.03
2017-11-16T05:08:02.191Z,97619.90
2017-11-16T05:10:29.751Z,97621.17
2017-11-16T05:12:57.374Z,97621.31
2017-11-16T05:15:24.977Z,97618.08
2017-11-16T05:17:52.617Z,97619.77
2017-11-16T05:20:20.196Z,97617.58
2017-11-16T05:22:47.752Z,97617.50
2017-11-16T05:25:15.704Z,97620.36
2017-11-16T05:27:43.278Z,97624.19
2017-11-16T05:30:10.924Z,97629.67
2017-11-16T05:32:38.520Z,97625.36
2017-11-16T05:35:06.148Z,97639.56
2017-11-16T05:37:33.711Z,97636.25
2017-11-16T05:40:01.270Z,97644.99
2017-11-16T05:42:29.138Z,97637.06
2017-11-16T05:44:56.700Z,97650.43
2017-11-16T05:47:24.381Z,97654.67
2017-11-16T05:49:51.956Z,97658.44
2017-11-16T05:52:19.561Z,97655.59
2017-11-16T05:54:47.160Z,97652.71
2017-11-16T05:57:14.726Z,97651.11
2017-11-16T05:59:42.343Z,97647.49
2017-11-16T06:02:09.992Z,97648.42
2017-11-16T06:04:37.938Z,97649.31
2017-11-16T06:07:06.420Z,97653.87
2017-11-16T06:09:35.201Z,97653.09
2017-11-16T06:12:02.783Z,97655.29
2017-11-16T06:14:30.384Z,97656.02
2017-11-16T06:16:57.948Z,97663.09
2017-11-16T06:19:26.507Z,97662.69
2017-11-16T06:21:54.903Z,97660.21
2017-11-16T06:24:23.606Z,97653.42
2017-11-16T06:26:51.178Z,97650.51
2017-11-16T06:29:18.919Z,97655.64
2017-11-16T06:31:46.518Z,97653.96
2017-11-16T06:34:14.175Z,97661.10
2017-11-16T06:36:42.028Z,97670.59
2017-11-16T06:39:09.602Z,97673.14
2017-11-16T06:41:37.218Z,97678.52
2017-11-16T06:44:04.887Z,97681.89
2017-11-16T06:46:33.151Z,97694.03
2017-11-16T06:49:00.965Z,97689.47
2017-11-16T06:51:28.571Z,97689.96
2017-11-16T06:53:56.176Z,97692.92
2017-11-16T06:56:23.744Z,97696.38
2017-11-16T06:58:51.301Z,97694.63
2017-11-16T07:01:18.887Z,97700.59
2017-11-16T07:03:46.725Z,97701.10
2017-11-16T07:06:14.337Z,97692.41
2017-11-16T07:08:41.912Z,97695.28
2017-11-16T07:11:09.542Z,97693.36
2017-11-16T07:13:37.095Z,97693.28
2017-11-16T07:16:04.656Z,97678.81
2017-11-16T07:18:32.419Z,97679.55
2017-11-16T07:21:00.085Z,97674.63
2017-11-16T07:23:27.799Z,97665.58
2017-11-16T07:25:55.407Z,97673.28
2017-11-16T07:28:23.062Z,97669.03
2017-11-16T07:30:50.598Z,97669.09
2017-11-16T07:33:18.190Z,97666.09
2017-11-16T07:35:45.754Z,97672.05
2017-11-16T07:38:13.306Z,97674.30
2017-11-16T07:40:53.354Z,97676.97
2017-11-16T07:43:20.948Z,97675.73
2017-11-16T07:45:48.530Z,97677.48
2017-11-16T07:48:16.109Z,97677.64
2017-11-16T07:50:43.704Z,97674.53
2017-11-16T07:53:11.267Z,97671.35
2017-11-16T07:55:38.829Z,97678.06
2017-11-16T07:58:06.448Z,97678.58
2017-11-16T08:00:34.052Z,97680.80
2017-11-16T08:03:01.774Z,97679.17
2017-11-16T08:05:29.356Z,97682.55
2017-11-16T08:07:56.893Z,97681.59
2017-11-16T08:10:24.577Z,97676.87
2017-11-16T08:12:52.137Z,97681.22
2017-11-16T08:15:19.707Z,97679.25
2017-11-16T08:17:47.739Z,97678.48
2017-11-16T08:20:15.335Z,97673.72
2017-11-16T08:22:42.905Z,97669.76
2017-11-16T08:25:11.122Z,97672.39
2017-11-16T08:27:38.710Z,97668.47
2017-11-16T08:30:06.321Z,97666.48
2017-11-16T08:32:34.370Z,97668.68
2017-11-16T08:35:03.874Z,97670.03
2017-11-16T08:37:32.103Z,97670.84
2017-11-16T08:39:59.709Z,97669.22
2017-11-16T08:42:27.359Z,97668.48
2017-11-16T08:44:54.922Z,97672.80
2017-11-16T08:47:22.480Z,97675.84
2017-11-16T08:49:50.057Z,97673.44
2017-11-16T08:52:17.639Z,97676.09
2017-11-16T08:54:45.254Z,97677.81
2017-11-16T08:57:12.840Z,97672.58
2017-11-16T08:59:40.392Z,97667.70
2017-11-16T09:02:08.002Z,97672.62
2017-11-16T09:04:35.571Z,97678.50
2017-11-16T09:07:03.159Z,97676.00
2017-11-16T09:09:30.737Z,97677.35
2017-11-16T09:11:58.389Z,97674.41
2017-11-16T09:14:26.125Z,97674.09
2017-11-16T09:16:53.785Z,97672.84
2017-11-16T09:19:22.608Z,97668.57
2017-11-16T09:21:50.184Z,97669.39
2017-11-16T09:24:17.724Z,97670.26
2017-11-16T09:26:45.484Z,97669.16
2017-11-16T09:29:13.129Z,97673.88
2017-11-16T09:31:40.689Z,97669.74
2017-11-16T09:34:08.265Z,97671.80
2017-11-16T09:36:35.845Z,97670.11
2017-11-16T09:39:03.592Z,97663.98
2017-11-16T09:41:31.269Z,97662.23
2017-11-16T09:43:58.868Z,97661.80
2017-11-16T09:46:26.472Z,97660.45
2017-11-16T09:48:54.085Z,97653.34
2017-11-16T09:51:21.676Z,97662.23
2017-11-16T09:53:49.340Z,97657.66
2017-11-16T09:56:16.964Z,97668.55
2017-11-16T09:58:44.516Z,97657.88
2017-11-16T10:01:12.635Z,97660.58
2017-11-16T10:03:41.325Z,97666.02
2017-11-16T10:06:09.889Z,97661.85
2017-11-16T10:08:37.513Z,97668.92
2017-11-16T10:11:05.087Z,97662.36
2017-11-16T10:13:32.683Z,97662.78
2017-11-16T10:16:00.289Z,97653.66
2017-11-16T10:18:27.917Z,97657.86
2017-11-16T10:20:55.539Z,97649.59
2017-11-16T10:23:23.126Z,97651.73
2017-11-16T10:25:50.815Z,97652.73
2017-11-16T10:28:19.475Z,97648.13
2017-11-16T10:30:48.465Z,97653.04
